メインページ
METAR-TAF:

METAR-TAF

空港 :

Mackinac Island Airport

Mackinac Island, ミシガン州, アメリカ合衆国

緯度: 45-51-54N, 経度: 084-38-14W, 海抜: 226m

現時点の気象観測

当レポートは26分前の02:15(UTC)に作成
西の風 11kt、最大18ktの突風を伴う
気温 -4°C
湿度 68%
気圧 1026 hPa
視程: 16.1km
高度3000ftの曇り

METAR: KMCD 070215Z AUTO 28011G18KT 10SM OVC030 M04/M09 A3029 RMK AO2 T10401090

時間: 21:41 (02:41 UTC)


TAF: 見つかりません

4,000以上の空港の気象観測と天気予報(METAR報とTAF報)

利用可能な観測所は地図上に黄色い丸と赤い丸で示す。

丸の上にカーソルを重ねると観測所名を参照できる。

次にクリックすると気象観測と天気予報を参照できる。

マップの切り替え:黒色「×」印の緑ボタンをクリックして拡大、「-」印の緑ボタンをクリックして縮小、緑色の三角印をクリックして隣りの地図に切り替え


METAR-TAF: